TimePDT,TemperatureF,Dew PointF,Humidity,Sea Level PressureIn,VisibilityMPH,Wind Direction,Wind SpeedMPH,Gust SpeedMPH,PrecipitationIn,Events,Conditions,WindDirDegrees,DateUTC
12:53 AM,24.1,18.0,77,30.14,10.0,SSE,4.6,-,N/A,,Mostly Cloudy,150,2013-03-18 07:53:00
1:53 AM,23.0,17.1,78,30.15,10.0,ESE,3.5,-,N/A,,Clear,120,2013-03-18 08:53:00
2:53 AM,21.0,16.0,81,30.14,10.0,Calm,Calm,-,N/A,,Clear,0,2013-03-18 09:53:00
3:53 AM,23.0,17.6,80,30.07,10.0,Calm,Calm,-,N/A,,Overcast,0,2013-03-18 10:53:00
4:53 AM,21.9,17.1,82,30.14,10.0,Calm,Calm,-,N/A,,Mostly Cloudy,0,2013-03-18 11:53:00
5:53 AM,21.0,18.0,88,30.15,10.0,Calm,Calm,-,N/A,,Overcast,0,2013-03-18 12:53:00
6:53 AM,24.1,19.9,84,30.17,10.0,Calm,Calm,-,N/A,,Overcast,0,2013-03-18 13:53:00
7:53 AM,28.0,24.1,85,30.18,9.0,West,4.6,-,0.00,,Overcast,270,2013-03-18 14:53:00
8:53 AM,32.0,24.1,73,30.19,10.0,Calm,Calm,-,N/A,,Partly Cloudy,0,2013-03-18 15:53:00
9:53 AM,35.1,21.9,59,30.17,10.0,WNW,4.6,-,N/A,,Clear,290,2013-03-18 16:53:00
10:53 AM,37.9,19.9,48,30.17,10.0,Calm,Calm,-,N/A,,Partly Cloudy,0,2013-03-18 17:53:00
11:53 AM,41.0,19.0,41,30.15,10.0,NE,5.8,-,N/A,,Clear,50,2013-03-18 18:53:00
12:53 PM,42.1,18.0,38,30.14,10.0,Variable,3.5,-,N/A,,Unknown,0,2013-03-18 19:53:00
1:53 PM,44.1,16.0,32,30.12,10.0,Calm,Calm,-,N/A,,Clear,0,2013-03-18 20:53:00
2:53 PM,46.0,16.0,30,30.11,10.0,Variable,4.6,-,N/A,,Clear,0,2013-03-18 21:53:00
3:53 PM,46.9,14.0,27,30.11,10.0,West,4.6,-,N/A,,Clear,280,2013-03-18 22:53:00
4:53 PM,48.0,12.0,24,30.11,10.0,West,11.5,-,N/A,,Clear,280,2013-03-18 23:53:00
5:53 PM,46.9,10.0,22,30.11,10.0,WNW,10.4,-,N/A,,Clear,300,2013-03-19 00:53:00
6:53 PM,39.0,15.1,38,30.13,10.0,North,6.9,-,N/A,,Clear,350,2013-03-19 01:53:00
7:53 PM,37.9,15.1,39,30.15,10.0,West,5.8,-,N/A,,Clear,270,2013-03-19 02:53:00
8:53 PM,32.0,16.0,52,30.18,10.0,NNE,9.2,-,N/A,,Clear,20,2013-03-19 03:53:00
9:53 PM,27.0,16.0,63,30.22,10.0,SE,5.8,-,N/A,,Clear,140,2013-03-19 04:53:00
10:53 PM,28.9,19.9,69,30.22,10.0,SSW,5.8,-,N/A,,Clear,210,2013-03-19 05:53:00
11:53 PM,26.1,18.0,71,30.23,10.0,SE,4.6,-,N/A,,Clear,130,2013-03-19 06:53:00